createdAt,value
2023-04-27T00:01:13.872Z,37.78
2023-04-27T00:03:41.431Z,36.90
2023-04-27T00:06:09.744Z,34.60
2023-04-27T00:08:36.844Z,33.90
2023-04-27T00:11:03.863Z,35.25
2023-04-27T00:13:30.546Z,31.77
2023-04-27T00:15:57.168Z,37.70
2023-04-27T00:18:23.826Z,31.75
2023-04-27T00:20:50.565Z,29.85
2023-04-27T00:23:17.199Z,29.52
2023-04-27T00:25:43.852Z,28.80
2023-04-27T00:28:10.660Z,28.13
2023-04-27T00:30:37.238Z,31.05
2023-04-27T00:33:04.004Z,32.58
2023-04-27T00:35:32.159Z,26.08
2023-04-27T00:37:58.830Z,25.95
2023-04-27T00:40:25.423Z,26.20
2023-04-27T00:42:52.090Z,26.52
2023-04-27T00:45:18.658Z,30.27
2023-04-27T00:47:46.018Z,32.60
2023-04-27T00:50:12.675Z,35.33
2023-04-27T00:52:39.526Z,36.60
2023-04-27T00:55:07.266Z,31.77
2023-04-27T00:57:34.374Z,30.38
2023-04-27T01:00:02.272Z,28.08
2023-04-27T01:02:30.095Z,30.65
2023-04-27T01:04:57.182Z,31.70
2023-04-27T01:07:26.917Z,31.25
2023-04-27T01:09:53.675Z,28.20
2023-04-27T01:12:20.571Z,32.13
2023-04-27T01:14:47.121Z,32.50
2023-04-27T01:17:14.227Z,34.53
2023-04-27T01:19:41.222Z,29.73
2023-04-27T01:22:08.026Z,35.83
2023-04-27T01:24:34.680Z,31.63
2023-04-27T01:27:01.785Z,33.65
2023-04-27T01:29:28.498Z,33.55
2023-04-27T01:31:55.101Z,29.65
2023-04-27T01:34:21.839Z,30.50
2023-04-27T01:36:48.456Z,31.00
2023-04-27T01:39:15.338Z,27.80
2023-04-27T01:41:42.102Z,27.55
2023-04-27T01:44:08.748Z,28.60
2023-04-27T01:46:35.504Z,25.92
2023-04-27T01:49:02.431Z,29.70
2023-04-27T01:51:29.040Z,28.45
2023-04-27T01:53:55.752Z,24.88
2023-04-27T01:56:22.336Z,24.40
2023-04-27T01:58:48.895Z,23.63
2023-04-27T02:01:15.767Z,23.77
2023-04-27T02:03:42.477Z,23.52
2023-04-27T02:06:09.477Z,23.85
2023-04-27T02:08:36.326Z,25.02
2023-04-27T02:11:03.328Z,25.00
2023-04-27T02:13:29.909Z,26.00
2023-04-27T02:15:56.666Z,24.20
2023-04-27T02:18:24.246Z,26.95
2023-04-27T02:20:50.877Z,28.70
2023-04-27T02:23:17.432Z,30.42
2023-04-27T02:25:46.801Z,30.45
2023-04-27T02:28:14.220Z,28.63
2023-04-27T02:30:41.520Z,27.27
2023-04-27T02:33:08.218Z,28.30
2023-04-27T02:35:34.865Z,29.27
2023-04-27T02:38:01.619Z,31.33
2023-04-27T02:40:28.439Z,31.63
2023-04-27T02:42:54.982Z,29.23
2023-04-27T02:45:21.619Z,31.70
2023-04-27T02:47:48.927Z,28.80
2023-04-27T02:50:15.624Z,30.98
2023-04-27T02:52:42.195Z,30.70
2023-04-27T02:55:09.283Z,31.00
2023-04-27T02:57:36.064Z,29.80
2023-04-27T03:00:04.431Z,27.98
2023-04-27T03:02:31.045Z,28.13
2023-04-27T03:04:59.195Z,27.55
2023-04-27T03:07:25.844Z,26.55
2023-04-27T03:09:52.473Z,25.52
2023-04-27T03:12:19.077Z,25.10
2023-04-27T03:14:45.845Z,24.83
2023-04-27T03:17:12.438Z,24.50
2023-04-27T03:19:39.020Z,24.90
2023-04-27T03:22:05.695Z,24.73
2023-04-27T03:24:33.282Z,24.42
2023-04-27T03:26:59.886Z,23.90
2023-04-27T03:29:27.664Z,24.02
2023-04-27T03:31:54.244Z,24.95
2023-04-27T03:34:21.933Z,23.77
2023-04-27T03:36:48.521Z,24.38
2023-04-27T03:39:15.468Z,23.92
2023-04-27T03:41:42.602Z,24.10
2023-04-27T03:44:09.681Z,24.30
2023-04-27T03:46:36.371Z,25.23
2023-04-27T03:49:03.254Z,24.33
2023-04-27T03:51:32.169Z,23.52
2023-04-27T03:53:59.265Z,23.80
2023-04-27T03:56:28.359Z,23.60
2023-04-27T03:58:54.952Z,25.27
2023-04-27T04:01:22.010Z,24.92
2023-04-27T04:03:48.982Z,24.35
2023-04-27T04:06:15.699Z,24.50
2023-04-27T04:08:42.497Z,23.77
2023-04-27T04:11:09.091Z,24.27
2023-04-27T04:13:36.572Z,23.52
2023-04-27T04:16:08.290Z,24.02
2023-04-27T04:18:36.164Z,23.70
2023-04-27T04:21:03.338Z,24.98
2023-04-27T04:23:29.959Z,25.10
2023-04-27T04:25:56.713Z,23.70
2023-04-27T04:28:23.942Z,23.65
2023-04-27T04:30:51.188Z,24.00
2023-04-27T04:33:18.140Z,23.55
2023-04-27T04:35:44.802Z,23.75
2023-04-27T04:38:11.443Z,23.77
2023-04-27T04:40:44.444Z,23.85
2023-04-27T04:43:13.372Z,23.88
2023-04-27T04:45:40.096Z,25.67
2023-04-27T04:48:06.692Z,25.58
2023-04-27T04:50:33.617Z,26.25
2023-04-27T04:53:00.281Z,27.13
2023-04-27T04:55:28.384Z,25.75
2023-04-27T04:57:55.136Z,26.75
2023-04-27T05:00:22.453Z,28.88
2023-04-27T05:02:49.532Z,28.73
2023-04-27T05:05:16.723Z,27.10
2023-04-27T05:07:43.418Z,28.33
2023-04-27T05:10:10.196Z,29.50
2023-04-27T05:12:36.821Z,30.67
2023-04-27T05:15:03.952Z,31.17
2023-04-27T05:17:30.676Z,33.70
2023-04-27T05:19:58.246Z,33.67
2023-04-27T05:22:25.043Z,32.13
2023-04-27T05:24:51.942Z,29.50
2023-04-27T05:27:18.610Z,28.08
2023-04-27T05:29:45.176Z,29.23
2023-04-27T05:32:11.917Z,30.27
2023-04-27T05:34:38.589Z,32.47
2023-04-27T05:37:05.352Z,33.15
2023-04-27T05:39:32.102Z,32.30
2023-04-27T05:41:58.944Z,32.22
2023-04-27T05:44:28.516Z,31.65
2023-04-27T05:46:58.383Z,30.08
2023-04-27T05:49:24.973Z,29.58
2023-04-27T05:51:51.927Z,30.38
2023-04-27T05:54:18.507Z,28.65
2023-04-27T05:56:45.062Z,29.20
2023-04-27T05:59:11.900Z,28.33
2023-04-27T06:01:38.940Z,25.60
2023-04-27T06:04:05.825Z,26.60
2023-04-27T06:06:33.254Z,26.42
2023-04-27T06:09:05.925Z,23.25
2023-04-27T06:11:32.490Z,22.95
2023-04-27T06:13:59.069Z,27.30
2023-04-27T06:16:25.847Z,30.15
2023-04-27T06:18:52.586Z,30.05
2023-04-27T06:21:19.151Z,27.15
2023-04-27T06:23:46.037Z,25.50
2023-04-27T06:26:12.620Z,25.60
2023-04-27T06:28:39.274Z,24.73
2023-04-27T06:31:06.435Z,25.33
2023-04-27T06:33:33.615Z,25.98
2023-04-27T06:36:01.302Z,25.75
2023-04-27T06:38:27.953Z,23.90
2023-04-27T06:40:54.986Z,22.85
2023-04-27T06:43:22.267Z,23.10
2023-04-27T06:45:48.902Z,22.02
2023-04-27T06:48:15.595Z,24.27
2023-04-27T06:50:42.181Z,22.27
2023-04-27T06:53:09.014Z,21.45
2023-04-27T06:55:38.199Z,21.33
2023-04-27T06:58:04.853Z,21.83
2023-04-27T07:00:32.249Z,22.17
2023-04-27T07:02:59.061Z,21.48
2023-04-27T07:05:26.142Z,22.02
2023-04-27T07:07:52.921Z,22.25
2023-04-27T07:10:19.602Z,22.05
2023-04-27T07:12:46.614Z,22.00
2023-04-27T07:15:13.496Z,21.73
2023-04-27T07:17:40.160Z,22.30
2023-04-27T07:20:07.573Z,21.95
2023-04-27T07:22:34.289Z,21.38
2023-04-27T07:25:00.990Z,23.02
2023-04-27T07:27:27.640Z,22.50
2023-04-27T07:29:54.807Z,21.95
2023-04-27T07:32:22.777Z,23.90
2023-04-27T07:34:54.061Z,23.00
2023-04-27T07:37:21.297Z,22.98
2023-04-27T07:39:49.364Z,22.83
2023-04-27T07:42:16.222Z,21.95
2023-04-27T07:44:42.888Z,22.00
2023-04-27T07:47:09.538Z,22.13
2023-04-27T07:49:37.515Z,20.33
2023-04-27T07:52:04.846Z,21.60
2023-04-27T07:54:31.675Z,21.55
2023-04-27T07:56:58.290Z,22.35
2023-04-27T07:59:24.995Z,21.50
2023-04-27T08:01:51.741Z,21.25
2023-04-27T08:04:19.252Z,20.52
2023-04-27T08:06:47.040Z,19.77
2023-04-27T08:09:14.153Z,19.40
2023-04-27T08:11:41.111Z,19.77
2023-04-27T08:14:13.436Z,20.02
2023-04-27T08:16:44.022Z,21.17
2023-04-27T08:19:11.730Z,19.40
2023-04-27T08:21:39.219Z,18.70
2023-04-27T08:24:06.543Z,19.77
2023-04-27T08:26:33.801Z,19.40
2023-04-27T08:29:01.976Z,18.05
2023-04-27T08:31:31.482Z,18.60
2023-04-27T08:33:58.954Z,18.77
2023-04-27T08:36:26.252Z,18.85
2023-04-27T08:38:52.876Z,18.73
2023-04-27T08:41:23.649Z,18.65
2023-04-27T08:43:51.568Z,17.42
2023-04-27T08:46:21.794Z,19.13
2023-04-27T08:48:52.362Z,17.55
2023-04-27T08:51:20.268Z,17.45
2023-04-27T08:53:48.905Z,17.85
2023-04-27T08:56:15.689Z,18.45
2023-04-27T08:58:44.722Z,16.98
2023-04-27T09:01:11.583Z,15.95
2023-04-27T09:03:38.847Z,16.50
2023-04-27T09:06:06.310Z,17.48
2023-04-27T09:08:46.935Z,16.88
2023-04-27T09:11:14.685Z,18.15
2023-04-27T09:13:45.028Z,17.00
2023-04-27T09:16:15.017Z,18.08
2023-04-27T09:18:43.890Z,16.85
2023-04-27T09:21:10.674Z,15.88
2023-04-27T09:23:39.149Z,18.35
2023-04-27T09:26:09.988Z,17.00
2023-04-27T09:28:41.331Z,16.10
2023-04-27T09:31:09.623Z,17.15
2023-04-27T09:33:36.764Z,17.05
2023-04-27T09:36:07.621Z,16.33
2023-04-27T09:38:34.346Z,16.48
2023-04-27T09:41:01.680Z,16.48
2023-04-27T09:43:29.997Z,16.13
2023-04-27T09:45:57.693Z,15.02
2023-04-27T09:48:25.701Z,15.60
2023-04-27T09:50:52.975Z,15.10
2023-04-27T09:53:51.828Z,14.77
2023-04-27T09:56:55.968Z,14.63
2023-04-27T09:59:54.758Z,13.98
2023-04-27T10:02:24.862Z,14.30
2023-04-27T10:05:16.734Z,14.05
2023-04-27T10:07:45.347Z,14.65
2023-04-27T10:10:20.384Z,14.30
2023-04-27T10:12:58.075Z,14.23
2023-04-27T10:15:28.785Z,14.48
2023-04-27T10:17:58.774Z,14.98
2023-04-27T10:20:33.645Z,15.23
2023-04-27T10:23:00.961Z,14.05
2023-04-27T10:25:38.296Z,13.52
2023-04-27T10:28:05.132Z,13.35
2023-04-27T10:30:37.133Z,13.63
2023-04-27T10:33:09.520Z,13.75
2023-04-27T10:35:54.694Z,12.75
2023-04-27T10:38:28.797Z,12.77
2023-04-27T10:41:03.047Z,12.80
2023-04-27T10:43:31.939Z,12.35
2023-04-27T10:46:12.903Z,13.48
2023-04-27T10:48:41.212Z,13.57
2023-04-27T10:51:07.948Z,13.50
2023-04-27T10:53:36.196Z,13.43
2023-04-27T10:56:05.211Z,13.27
2023-04-27T10:58:41.559Z,12.23
2023-04-27T11:01:25.640Z,13.25
2023-04-27T11:03:57.165Z,13.13
2023-04-27T11:06:23.852Z,13.10
2023-04-27T11:08:51.516Z,11.90
2023-04-27T11:11:18.270Z,12.35
2023-04-27T11:13:44.935Z,12.52
2023-04-27T11:16:11.563Z,13.38
2023-04-27T11:18:38.602Z,12.48
2023-04-27T11:21:16.601Z,12.68
2023-04-27T11:23:43.745Z,13.90
2023-04-27T11:26:14.885Z,13.27
2023-04-27T11:28:56.891Z,13.13
2023-04-27T11:31:23.537Z,12.70
2023-04-27T11:33:51.048Z,12.10
2023-04-27T11:36:23.102Z,14.05
2023-04-27T11:38:49.946Z,13.85
2023-04-27T11:41:16.724Z,14.18
2023-04-27T11:43:47.775Z,13.85
2023-04-27T11:46:14.468Z,12.27
2023-04-27T11:48:41.303Z,12.70
2023-04-27T11:51:10.867Z,13.48
2023-04-27T11:53:39.917Z,12.82
2023-04-27T11:56:13.680Z,13.00
2023-04-27T11:58:40.470Z,12.90
2023-04-27T12:01:10.386Z,12.77
2023-04-27T12:03:37.845Z,13.02
2023-04-27T12:06:21.701Z,12.57
2023-04-27T12:08:51.551Z,13.32
2023-04-27T12:11:18.620Z,12.40
2023-04-27T12:13:45.176Z,12.70
2023-04-27T12:16:11.860Z,13.02
2023-04-27T12:18:38.394Z,13.20
2023-04-27T12:23:34.772Z,14.32
2023-04-27T12:26:01.431Z,12.25
2023-04-27T12:28:27.993Z,13.55
2023-04-27T12:30:57.983Z,12.43
2023-04-27T12:33:24.804Z,12.73
2023-04-27T12:35:52.076Z,12.50
2023-04-27T12:38:18.679Z,12.63
2023-04-27T12:40:45.250Z,11.50
2023-04-27T12:43:12.903Z,13.15
2023-04-27T12:45:39.629Z,12.40
2023-04-27T12:48:06.556Z,12.65
2023-04-27T12:50:33.228Z,12.45
2023-04-27T12:53:00.314Z,13.40
2023-04-27T12:55:33.846Z,12.90
2023-04-27T12:58:01.375Z,12.55
2023-04-27T13:00:29.542Z,11.48
2023-04-27T13:02:56.967Z,11.05
2023-04-27T13:05:23.846Z,11.30
2023-04-27T13:07:50.447Z,11.00
2023-04-27T13:10:17.086Z,10.95
2023-04-27T13:12:43.736Z,11.82
2023-04-27T13:15:10.815Z,10.85
2023-04-27T13:17:37.507Z,10.68
2023-04-27T13:20:04.376Z,9.60
2023-04-27T13:22:30.941Z,9.68
2023-04-27T13:24:59.048Z,10.25
2023-04-27T13:27:28.381Z,11.23
2023-04-27T13:29:55.247Z,9.65
2023-04-27T13:32:22.633Z,11.60
2023-04-27T13:34:49.405Z,9.75
2023-04-27T13:37:16.622Z,9.95
2023-04-27T13:39:43.304Z,9.55
2023-04-27T13:42:10.159Z,9.48
2023-04-27T13:44:36.916Z,10.02
2023-04-27T13:47:03.592Z,9.60
2023-04-27T13:49:30.330Z,10.25
2023-04-27T13:51:56.971Z,9.90
2023-04-27T13:54:23.665Z,10.25
2023-04-27T13:56:50.242Z,9.77
2023-04-27T13:59:17.224Z,10.68
2023-04-27T14:01:44.018Z,10.77
2023-04-27T14:04:10.770Z,9.82
2023-04-27T14:06:37.580Z,9.80
2023-04-27T14:09:04.837Z,9.98
2023-04-27T14:11:37.217Z,9.52
2023-04-27T14:14:08.910Z,9.55
2023-04-27T14:16:35.743Z,9.63
2023-04-27T14:19:02.385Z,10.57
2023-04-27T14:21:28.965Z,10.73
2023-04-27T14:23:55.497Z,9.52
2023-04-27T14:26:22.044Z,10.25
2023-04-27T14:28:48.576Z,9.98
2023-04-27T14:31:15.147Z,10.43
2023-04-27T14:33:41.694Z,10.20
2023-04-27T14:36:08.558Z,10.25
2023-04-27T14:38:35.072Z,9.77
2023-04-27T14:41:03.043Z,9.90
2023-04-27T14:43:29.673Z,11.07
2023-04-27T14:46:02.099Z,11.68
2023-04-27T14:48:35.056Z,11.20
2023-04-27T14:51:02.325Z,10.43
2023-04-27T14:53:28.948Z,10.45
2023-04-27T14:55:55.530Z,9.95
2023-04-27T14:58:22.156Z,10.40
2023-04-27T15:00:50.896Z,10.48
2023-04-27T15:03:17.610Z,10.05
2023-04-27T15:05:44.396Z,9.57
2023-04-27T15:08:11.634Z,9.40
2023-04-27T15:10:38.227Z,9.98
2023-04-27T15:13:04.761Z,9.30
2023-04-27T15:15:31.477Z,9.55
2023-04-27T15:17:59.077Z,10.27
2023-04-27T15:20:25.692Z,9.75
2023-04-27T15:22:52.311Z,9.70
2023-04-27T15:25:19.198Z,9.77
2023-04-27T15:27:45.805Z,9.68
2023-04-27T15:30:14.265Z,9.50
2023-04-27T15:32:41.110Z,9.35
2023-04-27T15:35:08.371Z,9.57
2023-04-27T15:37:36.734Z,9.95
2023-04-27T15:40:04.274Z,10.20
2023-04-27T15:42:30.974Z,9.95
2023-04-27T15:44:57.960Z,10.43
2023-04-27T15:47:24.511Z,9.75
2023-04-27T15:49:57.393Z,11.18
2023-04-27T15:52:26.888Z,10.35
2023-04-27T15:54:53.717Z,10.07
2023-04-27T15:57:20.499Z,10.18
2023-04-27T15:59:47.085Z,10.43
2023-04-27T16:02:13.838Z,10.95
2023-04-27T16:04:40.675Z,11.15
2023-04-27T16:07:07.447Z,10.63
2023-04-27T16:09:34.360Z,11.13
2023-04-27T16:12:01.938Z,10.50
2023-04-27T16:14:28.563Z,10.38
2023-04-27T16:16:59.466Z,11.68
2023-04-27T16:19:27.509Z,9.98
2023-04-27T16:21:54.198Z,9.77
2023-04-27T16:24:21.286Z,10.10
2023-04-27T16:26:48.236Z,10.20
2023-04-27T16:29:15.079Z,10.55
2023-04-27T16:31:42.766Z,10.35
2023-04-27T16:34:09.608Z,10.32
2023-04-27T16:36:36.603Z,10.27
2023-04-27T16:39:05.066Z,11.07
2023-04-27T16:41:31.863Z,9.93
2023-04-27T16:43:58.464Z,10.23
2023-04-27T16:46:25.137Z,10.63
2023-04-27T16:48:51.802Z,9.57
2023-04-27T16:51:18.402Z,10.45
2023-04-27T16:53:45.027Z,9.38
2023-04-27T16:56:13.466Z,9.40
2023-04-27T16:58:40.969Z,10.52
2023-04-27T17:01:07.909Z,11.23
2023-04-27T17:03:36.178Z,10.48
2023-04-27T17:06:03.453Z,9.82
2023-04-27T17:08:30.171Z,11.00
2023-04-27T17:10:56.767Z,11.40
2023-04-27T17:13:23.609Z,10.20
2023-04-27T17:15:50.631Z,11.48
2023-04-27T17:18:17.860Z,10.38
2023-04-27T17:20:44.493Z,11.18
2023-04-27T17:23:11.084Z,10.70
2023-04-27T17:25:37.664Z,9.60
2023-04-27T17:28:04.346Z,10.00
2023-04-27T17:30:31.258Z,10.05
2023-04-27T17:32:57.962Z,10.48
2023-04-27T17:35:24.732Z,10.50
2023-04-27T17:37:52.036Z,10.60
2023-04-27T17:40:20.999Z,10.07
2023-04-27T17:42:47.809Z,10.35
2023-04-27T17:45:14.868Z,10.07
2023-04-27T17:47:41.659Z,10.02
2023-04-27T17:50:08.857Z,10.80
2023-04-27T17:52:35.797Z,11.95
2023-04-27T17:55:02.965Z,10.10
2023-04-27T17:57:29.634Z,9.85
2023-04-27T17:59:56.176Z,10.80
2023-04-27T18:02:23.276Z,11.50
2023-04-27T18:04:50.073Z,10.30
2023-04-27T18:07:18.626Z,10.52
2023-04-27T18:09:45.679Z,11.25
2023-04-27T18:12:12.607Z,11.45
2023-04-27T18:14:39.433Z,11.68
2023-04-27T18:17:06.314Z,11.23
2023-04-27T18:19:32.891Z,12.20
2023-04-27T18:21:59.538Z,11.77
2023-04-27T18:24:26.153Z,12.40
2023-04-27T18:26:52.889Z,12.10
2023-04-27T18:29:19.442Z,12.35
2023-04-27T18:31:46.299Z,13.25
2023-04-27T18:34:14.725Z,13.80
2023-04-27T18:36:41.355Z,13.18
2023-04-27T18:39:08.002Z,13.60
2023-04-27T18:41:34.653Z,14.35
2023-04-27T18:44:07.088Z,14.45
2023-04-27T18:46:34.683Z,15.15
2023-04-27T18:49:02.159Z,15.25
2023-04-27T18:51:29.385Z,15.90
2023-04-27T18:53:57.513Z,17.65
2023-04-27T18:56:24.278Z,16.23
2023-04-27T18:58:51.572Z,16.25
2023-04-27T19:01:26.063Z,17.80
2023-04-27T19:03:53.586Z,18.10
2023-04-27T19:06:21.217Z,17.77
2023-04-27T19:08:48.287Z,18.85
2023-04-27T19:11:17.899Z,19.33
2023-04-27T19:13:47.753Z,19.65
2023-04-27T19:16:15.542Z,19.85
2023-04-27T19:18:42.178Z,20.42
2023-04-27T19:21:10.057Z,21.27
2023-04-27T19:23:36.744Z,20.48
2023-04-27T19:26:12.452Z,21.98
2023-04-27T19:28:40.131Z,22.58
2023-04-27T19:31:07.897Z,20.98
2023-04-27T19:33:34.580Z,21.15
2023-04-27T19:36:01.166Z,19.52
2023-04-27T19:38:27.856Z,19.67
2023-04-27T19:40:54.430Z,20.13
2023-04-27T19:43:21.743Z,20.67
2023-04-27T19:45:49.293Z,20.20
2023-04-27T19:48:16.165Z,21.00
2023-04-27T19:50:43.433Z,20.08
2023-04-27T19:53:10.944Z,20.88
2023-04-27T19:55:37.862Z,20.00
2023-04-27T19:58:04.585Z,20.25
2023-04-27T20:00:31.169Z,20.92
2023-04-27T20:02:57.997Z,21.15
2023-04-27T20:05:25.160Z,21.40
2023-04-27T20:07:52.012Z,22.52
2023-04-27T20:10:18.717Z,24.05
2023-04-27T20:12:56.223Z,27.52
2023-04-27T20:15:24.878Z,23.05
2023-04-27T20:17:52.688Z,24.85
2023-04-27T20:20:19.612Z,25.58
2023-04-27T20:22:46.200Z,25.30
2023-04-27T20:25:14.611Z,28.25
2023-04-27T20:27:41.642Z,28.63
2023-04-27T20:30:08.977Z,28.38
2023-04-27T20:32:36.345Z,28.73
2023-04-27T20:35:04.832Z,30.60
2023-04-27T20:37:32.417Z,33.05
2023-04-27T20:39:59.456Z,33.63
2023-04-27T20:42:26.096Z,33.15
2023-04-27T20:44:54.871Z,33.28
2023-04-27T20:47:21.949Z,32.08
2023-04-27T20:49:48.714Z,32.45
2023-04-27T20:52:15.487Z,32.30
2023-04-27T20:54:42.412Z,28.63
2023-04-27T20:57:13.489Z,28.05
2023-04-27T20:59:41.152Z,27.65
2023-04-27T21:02:08.241Z,27.73
2023-04-27T21:04:34.957Z,36.15
2023-04-27T21:07:01.609Z,38.70
2023-04-27T21:09:28.257Z,36.45
2023-04-27T21:11:54.843Z,44.53
2023-04-27T21:14:21.457Z,45.90
2023-04-27T21:16:48.139Z,49.35
2023-04-27T21:19:16.543Z,48.90
2023-04-27T21:21:43.266Z,48.25
2023-04-27T21:24:09.867Z,54.20
2023-04-27T21:26:36.684Z,58.08
2023-04-27T21:29:05.622Z,59.63
2023-04-27T21:31:33.278Z,58.80
2023-04-27T21:34:00.127Z,61.55
2023-04-27T21:36:26.794Z,62.70
2023-04-27T21:38:53.434Z,63.47
2023-04-27T21:41:19.985Z,66.63
2023-04-27T21:43:46.750Z,66.38
2023-04-27T21:46:13.399Z,68.45
2023-04-27T21:48:39.991Z,70.40
2023-04-27T21:51:06.568Z,69.78
2023-04-27T21:53:33.118Z,67.93
2023-04-27T21:56:00.064Z,66.68
2023-04-27T21:58:26.777Z,64.82
2023-04-27T22:00:53.344Z,61.50
2023-04-27T22:03:20.110Z,63.63
2023-04-27T22:05:48.942Z,57.45
2023-04-27T22:08:17.357Z,56.17
2023-04-27T22:10:45.204Z,56.05
2023-04-27T22:15:41.385Z,44.67
2023-04-27T22:18:08.120Z,45.92
2023-04-27T22:20:35.079Z,46.88
2023-04-27T22:23:01.825Z,44.60
2023-04-27T22:25:28.481Z,43.40
2023-04-27T22:27:55.113Z,40.53
2023-04-27T22:30:21.753Z,40.22
2023-04-27T22:32:48.541Z,34.35
2023-04-27T22:35:25.332Z,33.70
2023-04-27T22:37:53.629Z,34.38
2023-04-27T22:40:20.358Z,30.85
2023-04-27T22:42:46.901Z,30.20
2023-04-27T22:45:13.661Z,29.02
2023-04-27T22:47:41.375Z,27.05
2023-04-27T22:50:08.716Z,24.55
2023-04-27T22:52:37.335Z,23.52
2023-04-27T22:55:04.519Z,25.30
2023-04-27T22:57:31.507Z,23.20
2023-04-27T22:59:58.134Z,22.50
2023-04-27T23:02:24.843Z,23.10
2023-04-27T23:04:51.571Z,23.63
2023-04-27T23:07:18.278Z,23.33
2023-04-27T23:09:45.819Z,24.92
2023-04-27T23:12:12.506Z,23.15
2023-04-27T23:14:40.558Z,24.13
2023-04-27T23:17:07.531Z,23.88
2023-04-27T23:19:34.703Z,24.40
2023-04-27T23:22:01.817Z,24.45
2023-04-27T23:24:31.539Z,24.00
2023-04-27T23:26:58.514Z,23.60
2023-04-27T23:29:25.484Z,23.98
2023-04-27T23:31:52.114Z,24.55
2023-04-27T23:34:18.876Z,25.30
2023-04-27T23:36:45.433Z,23.77
2023-04-27T23:39:12.294Z,23.98
2023-04-27T23:41:38.818Z,25.05
2023-04-27T23:44:05.366Z,24.92
2023-04-27T23:46:32.007Z,23.60
2023-04-27T23:48:58.614Z,24.80
2023-04-27T23:51:25.292Z,23.77
2023-04-27T23:53:51.880Z,23.48
2023-04-27T23:56:19.349Z,24.15
2023-04-27T23:58:46.044Z,24.10
